Culdesac, Idaho
Current Conditions -  °F | °C
As of 5:56 PM on Saturday 22 Nov 2014 (Local Time) from KLWS Reporting Station
Light Rain Light Rain  
Wind Chill: 37°   Ceiling: 3400
Heat Index: 42°   Visibility: 10mi
Dew Point: 37°   Wind: 8mph
Humidity: 82%   Direction: 260°W
Pressure: 29.87"   Gusts: NA
Location:  46.37°N, 116.67°W
Report Text: KLWS 230156Z AUTO 26007KT 10SM -RA OVC034 06/03 A2987 RMK AO2 RAB09 SLP120 P0002 T00560028
Loading
Personal Weather Stations






























Interactive Weather Map New forecast layout! Learn more

10-Day Weather Forecast

Advertisements
Track Severe Weather on mobile